Disclaimer

Please do not use the information listed here in-flight or in-navigation, as they are not provided to us by the airports but are provided by volunteers, so they might be outdated.

Search


Regions


Airport information page

Radio informations:
Tower (TWR) - 118.45 MHz

Airport informations:
Latitude: 19° 11' 54.91" N
Longitude: 069° 25' 47.18" W
Elevation: 57 feet - 17 meters
Operating hours: From sunrise to sunset (SR-SS)
Operating agency: Civil government, landing fees and diplomatic clearance may be required
Timezone: UTC-4
Fuel: N/A

Runway information:
11/29 - 3830 x 82 feet< - >1167 x 25 meters

Recent METARs:
MDAB 131400Z 09006KT 9999 SCT020 28/24 Q1016
MDAB 131500Z 09004KT 9999 SCT020 29/25 Q1016 RERA
MDAB 131500Z 09004KT 9999 SCT020 29/25 Q1016 RERA

Airport on the map: